Main page
METAR-TAF:

METAR-TAF

Airports :

RAF Odiham

Odiham, England

latitude: 51-14N, longitude: 000-57W, elevation: 123 m

Current weather observation

The report was made 50 minutes ago, at 02:50 UTC
Wind 8 kt from the Northeast
Temperature 10°C
Humidity 100%
Pressure 1013 hPa
Visibility: 3000 m
Overcast at a height of 200 ft
mist

METAR: EGVO 230250Z 05008KT 3000 BR OVC002 10/10 Q1013 AMB

Time: 04:40 (03:40 UTC)

Forecast

The report was made 10 hours and 43 minutes ago, at 16:57 UTC
Forecast valid from 21 at 18 UTC to 22 at 06 UTC
Wind 15 kt from the West with gusts up to 25 kt
Visibility 10 km or more
Few clouds at a height of 4000 ft
Becoming
from 21 at 18 UTC to 21 at 20 UTC
Wind 12 kt from the West/Southwest

TAF: EGVO 211657Z 2118/2206 27015G25KT 9999 FEW040 BECMG 2118/2120 24012KT

Weather observations and forecasts of more than 4000 airports (METAR and TAF reports).

The available stations are represented by yellow and red dots on the map.

Hover mouse over dot to see the name of the station.

Then click to see weather observations and forecasts.

To change the map : click on the green buttons with a black cross to zoom in, on the green button with a dash to zoom out, or on the green arrows for adjacent maps.


METAR-TAF: